createdAt,value
2019-03-10T10:26:23.071Z,21.30
2019-03-10T10:30:01.966Z,20.00
2019-03-10T10:32:35.275Z,20.00
2019-03-10T10:35:26.198Z,20.00
2019-03-10T10:38:00.571Z,19.90
2019-03-10T10:40:36.824Z,19.90
2019-03-10T10:43:11.454Z,19.90
2019-03-10T10:45:46.044Z,19.90
2019-03-10T10:48:32.650Z,20.10
2019-03-10T10:51:10.990Z,20.10
2019-03-10T10:55:53.562Z,20.10
2019-03-10T10:58:28.151Z,20.10
2019-03-10T11:01:03.471Z,20.20
2019-03-10T11:04:38.837Z,20.20
2019-03-10T11:08:10.840Z,20.20
2019-03-10T11:11:01.239Z,20.20
2019-03-10T11:13:34.533Z,20.10
2019-03-10T11:16:10.955Z,20.10
2019-03-10T11:18:47.107Z,20.10
2019-03-10T11:21:21.443Z,20.10
2019-03-10T11:24:00.729Z,20.00
2019-03-10T11:26:34.991Z,20.00
2019-03-10T11:29:17.955Z,20.10
2019-03-10T11:41:57.468Z,21.60
2019-03-10T14:26:15.512Z,21.50
2019-03-10T14:28:45.740Z,17.00
2019-03-10T14:31:15.457Z,12.70
2019-03-10T14:33:45.311Z,10.40
2019-03-10T14:36:15.175Z,8.60
2019-03-10T14:38:44.964Z,7.60
2019-03-10T14:41:14.703Z,6.80
2019-03-10T14:43:44.440Z,6.30
2019-03-10T14:46:14.097Z,6.00
2019-03-10T14:48:43.766Z,5.80
2019-03-10T14:51:14.584Z,5.50
2019-03-10T14:53:44.368Z,5.50
2019-03-10T14:56:14.124Z,5.50
2019-03-10T14:58:44.163Z,5.50
2019-03-10T15:01:13.949Z,5.40
2019-03-10T15:03:43.611Z,5.40
2019-03-10T15:06:13.788Z,5.20
2019-03-10T15:08:43.458Z,5.30
2019-03-10T15:11:13.668Z,5.20
2019-03-10T15:13:43.551Z,5.10
2019-03-10T15:16:13.571Z,5.10
2019-03-10T15:18:43.226Z,5.10
2019-03-10T15:21:12.911Z,5.20
2019-03-10T15:23:42.609Z,5.10
2019-03-10T15:26:12.252Z,5.00
2019-03-10T15:28:41.943Z,5.10
2019-03-10T15:31:11.597Z,5.10
2019-03-10T15:33:41.640Z,5.10
2019-03-10T15:36:19.664Z,5.10
2019-03-10T15:38:43.541Z,5.00
2019-03-10T15:41:13.543Z,5.00
2019-03-10T15:43:43.298Z,4.90
2019-03-10T15:46:12.971Z,4.80
2019-03-10T15:48:42.619Z,4.80
2019-03-10T15:51:12.297Z,4.70
2019-03-10T15:53:41.949Z,4.80
2019-03-10T15:56:11.619Z,4.80
2019-03-10T15:58:41.907Z,4.90
2019-03-10T16:01:11.639Z,5.00
2019-03-10T16:03:41.587Z,5.00
2019-03-10T16:06:11.419Z,4.90
2019-03-10T16:08:41.341Z,4.90
2019-03-10T16:11:11.172Z,4.70
2019-03-10T16:13:40.820Z,4.60
2019-03-10T16:16:10.549Z,4.50
2019-03-10T16:18:40.431Z,4.60
2019-03-10T16:21:10.221Z,4.60
2019-03-10T16:23:39.863Z,4.70
2019-03-10T16:26:09.608Z,4.60
2019-03-10T16:28:39.631Z,4.30
2019-03-10T16:31:09.304Z,4.20
2019-03-10T16:33:39.262Z,4.20
2019-03-10T16:36:10.691Z,4.00
2019-03-10T16:38:40.851Z,4.00
2019-03-10T16:41:10.520Z,4.00
2019-03-10T16:43:40.347Z,4.00
2019-03-10T16:46:10.020Z,3.90
2019-03-10T16:48:39.687Z,3.80
2019-03-10T16:51:09.497Z,3.70
2019-03-10T16:53:41.666Z,3.60
2019-03-10T16:56:11.315Z,3.50
2019-03-10T16:58:40.959Z,3.50
2019-03-10T17:01:10.635Z,3.50
2019-03-10T17:03:40.687Z,3.40
2019-03-10T17:06:10.368Z,3.30
2019-03-10T17:08:40.066Z,3.40
2019-03-10T17:11:09.822Z,3.40
2019-03-10T17:13:39.499Z,3.30
2019-03-10T17:16:09.486Z,3.30
2019-03-10T17:18:39.132Z,3.20
2019-03-10T17:21:08.799Z,3.10
2019-03-10T17:23:38.579Z,2.90
2019-03-10T17:26:08.404Z,2.40
2019-03-10T17:28:38.055Z,2.10
2019-03-10T17:31:07.730Z,1.80
2019-03-10T17:33:37.780Z,1.60
2019-03-10T17:36:08.613Z,1.40
2019-03-10T17:38:38.599Z,1.20
2019-03-10T17:41:08.403Z,1.10
2019-03-10T17:43:38.176Z,1.00
2019-03-10T17:46:07.844Z,1.00
2019-03-10T17:48:38.131Z,0.90
2019-03-10T17:51:07.952Z,0.90
2019-03-10T17:53:38.061Z,0.80
2019-03-10T17:56:07.837Z,0.90
2019-03-10T17:58:37.776Z,0.90
2019-03-10T18:01:07.723Z,1.00
2019-03-10T18:03:38.667Z,1.00
2019-03-10T18:06:08.444Z,0.90
2019-03-10T18:08:39.335Z,1.00
2019-03-10T18:11:09.062Z,1.00
2019-03-10T18:13:38.711Z,1.00
2019-03-10T18:16:08.552Z,1.10
2019-03-10T18:18:38.523Z,1.10
2019-03-10T18:21:08.180Z,1.10
2019-03-10T18:23:37.854Z,1.10
2019-03-10T18:26:07.670Z,1.10
2019-03-10T18:28:37.504Z,1.10
2019-03-10T18:31:07.254Z,1.10
2019-03-10T18:33:37.031Z,1.10
2019-03-10T18:36:06.681Z,1.10
2019-03-10T18:38:36.453Z,1.10
2019-03-10T18:41:06.100Z,1.10
2019-03-10T18:43:35.764Z,1.20
2019-03-10T18:46:05.407Z,1.20
2019-03-10T18:48:35.255Z,1.20
2019-03-10T18:51:04.918Z,1.20
2019-03-10T18:53:34.579Z,1.20
2019-03-10T18:56:04.824Z,1.10
2019-03-10T18:58:34.647Z,1.20
2019-03-10T19:01:05.239Z,1.20
2019-03-10T19:03:35.061Z,1.20
2019-03-10T19:06:05.211Z,1.20
2019-03-10T19:08:35.099Z,1.20
2019-03-10T19:11:04.762Z,1.20
2019-03-10T19:13:35.061Z,1.20
2019-03-10T19:16:04.700Z,1.20
2019-03-10T19:18:34.502Z,1.20
2019-03-10T19:21:04.272Z,1.30
2019-03-10T19:23:33.944Z,1.30
2019-03-10T19:26:03.658Z,1.30
2019-03-10T19:28:33.492Z,1.30
2019-03-10T19:31:03.635Z,1.30
2019-03-10T19:33:33.412Z,1.30
2019-03-10T19:36:03.132Z,1.30
2019-03-10T19:38:32.804Z,1.30
2019-03-10T19:41:02.916Z,1.40
2019-03-10T19:43:32.655Z,1.30
2019-03-10T19:46:02.323Z,1.40
2019-03-10T19:48:32.312Z,1.40
2019-03-10T19:51:02.124Z,1.30
2019-03-10T19:53:31.799Z,1.40
2019-03-10T19:56:03.802Z,1.40
2019-03-10T19:58:33.099Z,1.40
2019-03-10T20:01:02.758Z,1.40
2019-03-10T20:03:32.435Z,1.40
2019-03-10T20:06:02.416Z,1.40
2019-03-10T20:08:32.097Z,1.40
2019-03-10T20:11:01.796Z,1.40
2019-03-10T20:13:31.572Z,1.40
2019-03-10T20:16:01.356Z,1.30
2019-03-10T20:18:31.155Z,1.30
2019-03-10T20:21:00.868Z,0.90
2019-03-10T20:23:30.816Z,1.40
2019-03-10T20:26:01.891Z,1.40
2019-03-10T20:28:31.871Z,1.40
2019-03-10T20:31:01.667Z,1.40
2019-03-10T20:33:31.353Z,1.40
2019-03-10T20:36:01.112Z,1.40
2019-03-10T20:38:30.984Z,1.40
2019-03-10T20:41:00.751Z,1.40
2019-03-10T20:43:30.852Z,1.50
2019-03-10T20:46:00.548Z,1.50
2019-03-10T20:48:30.614Z,1.50
2019-03-10T20:51:00.595Z,1.60
2019-03-10T20:53:30.800Z,1.60
2019-03-10T20:56:00.800Z,1.60
2019-03-10T20:58:30.789Z,1.60
2019-03-10T21:01:00.832Z,1.60
2019-03-10T21:03:30.495Z,1.70
2019-03-10T21:06:00.447Z,1.70
2019-03-10T21:08:30.107Z,1.70
2019-03-10T21:10:59.867Z,1.70
2019-03-10T21:13:29.860Z,1.70
2019-03-10T21:15:59.661Z,1.70
2019-03-10T21:18:29.316Z,1.80
2019-03-10T21:20:58.991Z,1.80
2019-03-10T21:23:30.561Z,1.80
2019-03-10T21:26:00.363Z,1.90
2019-03-10T21:28:30.211Z,1.90
2019-03-10T21:30:59.891Z,1.90
2019-03-10T21:33:29.545Z,1.90
2019-03-10T21:35:59.224Z,1.90
2019-03-10T21:38:28.875Z,1.90
2019-03-10T21:40:58.647Z,2.00
2019-03-10T21:43:28.368Z,2.00
2019-03-10T21:45:58.162Z,2.00
2019-03-10T21:48:27.816Z,1.90
2019-03-10T21:50:57.505Z,2.00
2019-03-10T21:53:27.151Z,2.00
2019-03-10T21:55:56.836Z,2.00
2019-03-10T21:58:26.719Z,2.00
2019-03-10T22:00:56.931Z,2.00
2019-03-10T22:03:26.579Z,2.00
2019-03-10T22:05:56.266Z,2.00
2019-03-10T22:08:25.919Z,2.00
2019-03-10T22:10:55.593Z,2.10
2019-03-10T22:13:25.247Z,2.10
2019-03-10T22:15:54.932Z,2.10
2019-03-10T22:18:24.757Z,2.10
2019-03-10T22:20:54.516Z,2.10
2019-03-10T22:23:24.172Z,2.10
2019-03-10T22:25:53.849Z,2.10
2019-03-10T22:28:23.647Z,2.10
2019-03-10T22:30:53.719Z,2.10
2019-03-10T22:33:23.472Z,2.10
2019-03-10T22:35:53.146Z,2.20
2019-03-10T22:38:22.808Z,2.20
2019-03-10T22:40:52.869Z,2.30
2019-03-10T22:43:22.583Z,2.20
2019-03-10T22:45:52.601Z,2.30
2019-03-10T22:48:22.365Z,2.30
2019-03-10T22:50:52.031Z,2.30
2019-03-10T22:53:21.683Z,2.30
2019-03-10T22:55:51.575Z,2.30
2019-03-10T22:58:21.343Z,2.30
2019-03-10T23:00:55.131Z,2.30
2019-03-10T23:03:24.915Z,2.40
2019-03-10T23:05:54.752Z,2.40
2019-03-10T23:08:24.553Z,2.40
2019-03-10T23:10:54.228Z,2.40
2019-03-10T23:13:23.886Z,2.40
2019-03-10T23:15:53.759Z,2.40
2019-03-10T23:18:24.043Z,2.40
2019-03-10T23:20:53.725Z,2.30
2019-03-10T23:23:23.387Z,2.30
2019-03-10T23:25:53.456Z,2.40
2019-03-10T23:28:23.675Z,2.40
2019-03-10T23:30:53.351Z,2.40
2019-03-10T23:33:23.170Z,2.40
2019-03-10T23:35:52.822Z,2.40
2019-03-10T23:38:22.496Z,2.30
2019-03-10T23:40:52.323Z,2.30
2019-03-10T23:43:22.138Z,2.20
2019-03-10T23:45:51.793Z,2.10
2019-03-10T23:48:21.657Z,2.10
2019-03-10T23:50:51.316Z,2.00
2019-03-10T23:53:20.989Z,2.10
2019-03-10T23:55:50.645Z,2.10
2019-03-10T23:58:20.317Z,2.20
